Domov               UVHVVR             MKGP            O straneh              
ZDRAVSTVENO VARSTVO RASTLIN
  MREŽA AGROMET. POSTAJ
 ► PROGNOSTIČNA OBVESTILA
AGROMETEOROLOŠKI PODATKI -
ARSO
OBVLADOVANJE TVEGANJ ZARADI
NEUGODNIH VREMENSKIH RAZMER
  ► NARAVNE NESREČE
  ► SUŠA/MOČA
  ► NAMAKANJE
  ► ŽLED (gozdarstvo)
KARTOGRAFSKI PRIKAZI
SPLETNE POVEZAVE
PROJEKTI IN PUBLIKACIJE

AGROMETEOROLOŠKA MREŽA: VREMENSKE POSTAJE IN FENOLOŠKA OPAZOVANJA

Pregled podatkov za lokacijo KIS 2, meteorološka postaja 27260

Pregled senzorjev na lokaciji

ID Ime Zadnja
vrednost
Datum
zadnje
spremembe
Tip
senzorja
1396 Relativna vlaga 2 m (% RH) 90,77 % RH 21.10.2017 00:45 Generic 0 - 100 %
1397 Omočenost lista (U) 10 U 21.10.2017 00:45 A730WET
1398 Padavine 0.2 mm (mm) 0 mm 21.10.2017 00:45 Generic
3177 Temperatura 2 m ( °C) 8,24 °C 21.10.2017 00:45 Generic -40 - +60 °C

Pregled podatkov zadnjih 24 ur

Zap.
št.
Datum in čas KIS 2
Omočenost
lista
Padavine
0.2
mm
Relativna
vlaga
2
m
Temperatura
2
m
0 21.10.2017 00:00 10 0 90,77 8,24
1 20.10.2017 23:30 10 0 89,14 8,4
2 20.10.2017 23:00 10 0 85,23 9,19
3 20.10.2017 22:30 9,4 0 77,66 10,99
4 20.10.2017 22:00 3,4 0 75,92 11,46
5 20.10.2017 21:30 0,53 0 72,15 12,4
6 20.10.2017 21:00 0,6 0 71,8 12,51
7 20.10.2017 20:30 0,7 0 72,09 12,49
8 20.10.2017 20:00 1 0 72,99 12,38
9 20.10.2017 19:30 0,97 0 73,17 12,47
10 20.10.2017 19:00 0,17 0 71,56 12,95
11 20.10.2017 18:30 0,03 0 70,7 13,3
12 20.10.2017 18:00 0,07 0 70,45 13,55
13 20.10.2017 17:30 0 0 68,79 14,04
14 20.10.2017 17:00 0 0 66,82 14,59
15 20.10.2017 16:30 0 0 64,57 15,26
16 20.10.2017 16:00 0 0 61,28 15,95
17 20.10.2017 15:30 0 0 60,41 16,45
18 20.10.2017 15:00 0 0 60,92 16,72
19 20.10.2017 14:30 0 0 61,01 16,84
20 20.10.2017 14:00 0 0 57,56 17,45
21 20.10.2017 13:30 0 0 53,15 18,19
22 20.10.2017 13:00 0 0 51,85 18,6
23 20.10.2017 12:30 0 0 51,75 18,6
24 20.10.2017 12:00 0 0 51,72 18,42
25 20.10.2017 11:30 0 0 51,87 18,37
26 20.10.2017 11:00 0 0 55,23 17,61
27 20.10.2017 10:30 0 0 59,97 15,67
28 20.10.2017 10:00 0 0 68,73 12,62
29 20.10.2017 09:30 9,3 0 71,73 11,48
30 20.10.2017 09:00 10 0 74,31 10,59
31 20.10.2017 08:30 10 0 79,32 9,32
32 20.10.2017 08:00 10 0 88,36 7,09
33 20.10.2017 07:30 10 0 90,77 6,45
34 20.10.2017 07:00 10 0 92,58 5,93
35 20.10.2017 06:30 10 0 93,58 5,69
36 20.10.2017 06:00 10 0 92,97 5,88
37 20.10.2017 05:30 10 0 93,56 5,97
38 20.10.2017 05:00 10 0 93,59 5,91
39 20.10.2017 04:30 10 0 92,45 6,32
40 20.10.2017 04:00 10 0 92,73 6,51
41 20.10.2017 03:30 10 0 92,08 6,68
42 20.10.2017 03:00 10 0 91,06 6,77
43 20.10.2017 02:30 10 0 90,62 7,25
44 20.10.2017 02:00 10 0 90,82 7,42
45 20.10.2017 01:30 10 0 90,26 7,7
© 2011 Ministrstvo za kmetijstvo, gozdarstvo in prehrano. Vse pravice pridržane.